Mineral Point, WI

6:14 PM CST on January 18, 2018 (GMT -0600)
Iowa County

Weather History for KMRJ - November, 2012

Change the Weather History Date:

Friday, November 23, 2012

  Actual Average (KLNR) Record (KLNR)
Temperature  
Mean Temperature 32 °F -  
Max Temperature 37 °F 41 °F 60 °F (1999)
Min Temperature 26 °F 25 °F 12 °F (2013)
Degree Days  
Heating Degree Days 34    
Moisture  
Dew Point 18 °F    
Average Humidity 63    
Maximum Humidity 75    
Minimum Humidity 55    
Precipitation  
Precipitation 0.00 in - - ()
Sea Level Pressure  
Sea Level Pressure 30.08 in    
Wind  
Wind Speed 20 mph (WNW)    
Max Wind Speed 32 mph    
Max Gust Speed 45 mph    
Visibility 10 miles    
Events Snow    
Averages and records for this station are not official NWS values.
T = Trace of Precipitation, MM = Missing Value Source: NWS Daily Summary

Daily Weather History Graph

Daily Weather History Graph

Search for Another Location

Airport or City:

Trip Planner

Search our weather history database for the weather conditions in past years. The results will help you decide how hot, cold, wet, or windy it might be!

Date:

Astronomy

Nov. 23, 2012 Rise Set
Actual Time 7:03 AM CST 4:31 PM CST
Civil Twilight 6:32 AM CST 5:02 PM CST
Nautical Twilight 5:57 AM CST 5:37 PM CST
Astronomical Twilight 5:23 AM CST 6:10 PM CST
Moon 1:51 PM CST (11/23) 2:16 AM CST (11/23)
Length of Visible Light 10h 29m
Length of Day
9h 27m
Waxing Gibbous, 80% of the Moon is Illuminated
Nov 23
Waxing Gibbous
Nov 28
Full
Dec 6
Last Quarter
Dec 13
New
Dec 19
First Quarter

Hourly Weather History & Observations

Time (CST) Temp. Windchill Dew Point Humidity Pressure Visibility Wind Dir Wind Speed Gust Speed Precip Events Conditions
12:15 AM 37.4 °F 25.2 °F 28.4 °F 70% 29.88 in 10.0 mi West 28.8 mph 35.7 mph N/A   Overcast
12:35 AM 37.4 °F 26.9 °F 28.4 °F 70% 29.89 in 10.0 mi West 20.7 mph 31.1 mph N/A   Overcast
12:55 AM 35.6 °F 24.2 °F 28.4 °F 75% 29.88 in 10.0 mi West 21.9 mph 25.3 mph N/A   Overcast
1:15 AM 35.6 °F 23.2 °F 28.4 °F 75% 29.88 in 10.0 mi West 26.5 mph 32.2 mph N/A   Overcast
1:35 AM 35.6 °F 24.5 °F 26.6 °F 70% 29.88 in 10.0 mi West 20.7 mph 33.4 mph N/A   Overcast
1:55 AM 35.6 °F 23.4 °F 28.4 °F 75% 29.88 in 10.0 mi West 25.3 mph 34.5 mph N/A   Overcast
2:15 AM 35.6 °F 22.1 °F 26.6 °F 70% 29.88 in 10.0 mi West 32.2 mph 39.1 mph N/A   Overcast
2:35 AM 32.0 °F 17.6 °F 23.0 °F 69% 29.89 in 10.0 mi West 29.9 mph 40.3 mph N/A   Mostly Cloudy
2:55 AM 32.0 °F 18.4 °F 23.0 °F 69% 29.90 in 10.0 mi West 26.5 mph 33.4 mph N/A   Mostly Cloudy
3:15 AM 32.0 °F 18.4 °F 21.2 °F 64% 29.90 in 10.0 mi WNW 26.5 mph 44.9 mph N/A   Overcast
3:35 AM 32.0 °F 19.2 °F 21.2 °F 64% 29.90 in 10.0 mi West 23.0 mph 27.6 mph N/A   Overcast
3:55 AM 32.0 °F 17.9 °F 21.2 °F 64% 29.90 in 10.0 mi West 28.8 mph 41.4 mph N/A   Overcast
4:15 AM 30.2 °F 15.9 °F 19.4 °F 64% 29.92 in 10.0 mi West 26.5 mph 35.7 mph N/A   Overcast
4:35 AM 28.4 °F 14.4 °F 15.8 °F 59% 29.93 in 10.0 mi WNW 23.0 mph 35.7 mph N/A   Overcast
4:55 AM 28.4 °F 15.8 °F 15.8 °F 59% 29.94 in 10.0 mi WNW 18.4 mph 35.7 mph N/A   Overcast
5:15 AM 28.4 °F 13.5 °F 17.6 °F 64% 29.94 in 10.0 mi WNW 26.5 mph 32.2 mph N/A   Overcast
5:35 AM 28.4 °F 14.7 °F 15.8 °F 59% 29.94 in 10.0 mi WNW 21.9 mph 35.7 mph N/A   Overcast
5:55 AM 28.4 °F 16.6 °F 17.6 °F 64% 29.96 in 10.0 mi WNW 16.1 mph 28.8 mph N/A   Overcast
6:35 AM 28.4 °F 14.1 °F 17.6 °F 64% 29.96 in 10.0 mi West 24.2 mph 31.1 mph N/A   Overcast
6:55 AM 28.4 °F 15.4 °F 17.6 °F 64% 29.98 in 10.0 mi West 19.6 mph 32.2 mph N/A   Overcast
7:15 AM 28.4 °F 15.8 °F 17.6 °F 64% 29.99 in 10.0 mi WNW 18.4 mph 27.6 mph N/A Snow Light Snow
7:35 AM 28.4 °F 15.4 °F 17.6 °F 64% 30.00 in 10.0 mi WNW 19.6 mph 32.2 mph N/A Snow Light Snow
7:55 AM 28.4 °F 15.1 °F 15.8 °F 59% 30.01 in 10.0 mi WNW 20.7 mph 31.1 mph N/A Snow Light Snow
8:15 AM 26.6 °F 15.2 °F 17.6 °F 69% 30.02 in 10.0 mi WNW 13.8 mph 24.2 mph N/A Snow Light Snow
8:35 AM 26.6 °F 13.8 °F 15.8 °F 64% 30.02 in 10.0 mi WNW 17.3 mph 32.2 mph N/A   Overcast
8:55 AM 28.4 °F 18.0 °F 15.8 °F 59% 30.04 in 10.0 mi WNW 12.7 mph 28.8 mph N/A Snow Light Snow
9:15 AM 28.4 °F 16.2 °F 15.8 °F 59% 30.05 in 10.0 mi WNW 17.3 mph 28.8 mph N/A Snow Light Snow
9:35 AM 26.6 °F 12.7 °F 15.8 °F 64% 30.07 in 10.0 mi WNW 20.7 mph 27.6 mph N/A Snow Light Snow
9:55 AM 26.6 °F 13.4 °F 14.0 °F 59% 30.08 in 10.0 mi NW 18.4 mph 29.9 mph N/A Snow Light Snow
10:15 AM 26.6 °F 14.3 °F 14.0 °F 59% 30.09 in 10.0 mi NW 16.1 mph 29.9 mph N/A Snow Light Snow
10:35 AM 26.6 °F 13.4 °F 14.0 °F 59% 30.09 in 10.0 mi WNW 18.4 mph 29.9 mph N/A Snow Light Snow
10:55 AM 28.4 °F 15.4 °F 14.0 °F 55% 30.10 in 10.0 mi WNW 19.6 mph 28.8 mph N/A Snow Light Snow
11:15 AM 26.6 °F 13.8 °F 14.0 °F 59% 30.11 in 10.0 mi WNW 17.3 mph 29.9 mph N/A Snow Light Snow
11:35 AM 26.6 °F 14.3 °F 14.0 °F 59% 30.12 in 10.0 mi WNW 16.1 mph 27.6 mph N/A   Overcast
12:15 PM 28.4 °F 16.6 °F 14.0 °F 55% 30.12 in 10.0 mi WNW 16.1 mph 26.5 mph N/A   Overcast
12:35 PM 28.4 °F 15.8 °F 14.0 °F 55% 30.13 in 10.0 mi NW 18.4 mph 26.5 mph N/A   Overcast
12:55 PM 28.4 °F 16.2 °F 14.0 °F 55% 30.13 in 10.0 mi NW 17.3 mph 26.5 mph N/A   Overcast
1:15 PM 28.4 °F 16.2 °F 14.0 °F 55% 30.13 in 10.0 mi West 17.3 mph 24.2 mph N/A   Overcast
1:35 PM 28.4 °F 17.5 °F 14.0 °F 55% 30.14 in 10.0 mi WNW 13.8 mph 31.1 mph N/A   Overcast
1:55 PM 30.2 °F 19.3 °F 15.8 °F 55% 30.14 in 10.0 mi WNW 15.0 mph 25.3 mph N/A   Overcast
2:15 PM 30.2 °F 18.1 °F 15.8 °F 55% 30.15 in 10.0 mi WNW 18.4 mph 26.5 mph N/A   Overcast
2:35 PM 30.2 °F 19.3 °F 15.8 °F 55% 30.16 in 10.0 mi WNW 15.0 mph 27.6 mph N/A   Overcast
2:55 PM 28.4 °F 17.5 °F 15.8 °F 59% 30.16 in 10.0 mi NW 13.8 mph 26.5 mph N/A   Overcast
3:15 PM 28.4 °F 17.0 °F 15.8 °F 59% 30.17 in 10.0 mi NW 15.0 mph 26.5 mph N/A   Overcast
3:35 PM 28.4 °F 18.0 °F 15.8 °F 59% 30.18 in 10.0 mi WNW 12.7 mph 26.5 mph N/A   Overcast
3:55 PM 28.4 °F 17.0 °F 15.8 °F 59% 30.19 in 10.0 mi WNW 15.0 mph 23.0 mph N/A   Overcast
4:15 PM 28.4 °F 18.5 °F 17.6 °F 64% 30.19 in 10.0 mi WNW 11.5 mph 16.1 mph N/A   Overcast
4:35 PM 28.4 °F 17.0 °F 17.6 °F 64% 30.20 in 10.0 mi NW 15.0 mph 19.6 mph N/A   Overcast
4:55 PM 28.4 °F 19.1 °F 17.6 °F 64% 30.20 in 7.0 mi NW 10.4 mph 18.4 mph N/A   Overcast
5:15 PM 28.4 °F 18.0 °F 17.6 °F 64% 30.21 in 10.0 mi WNW 12.7 mph 17.3 mph N/A   Overcast
5:35 PM 28.4 °F 19.1 °F 17.6 °F 64% 30.22 in 10.0 mi WNW 10.4 mph - N/A   Overcast
5:55 PM 28.4 °F 18.5 °F 17.6 °F 64% 30.22 in 10.0 mi WNW 11.5 mph 18.4 mph N/A   Overcast
6:15 PM 28.4 °F 19.1 °F 17.6 °F 64% 30.22 in 10.0 mi WNW 10.4 mph - N/A   Overcast
6:35 PM 28.4 °F 17.5 °F 17.6 °F 64% 30.22 in 10.0 mi WNW 13.8 mph 19.6 mph N/A   Overcast
6:55 PM 28.4 °F 19.7 °F 17.6 °F 64% 30.23 in 10.0 mi NW 9.2 mph 17.3 mph N/A   Overcast
7:15 PM 28.4 °F 18.5 °F 17.6 °F 64% 30.22 in 10.0 mi NW 11.5 mph - N/A   Overcast
7:35 PM 28.4 °F 17.0 °F 17.6 °F 64% 30.22 in 10.0 mi NW 15.0 mph 23.0 mph N/A   Overcast
7:55 PM 28.4 °F 19.7 °F 17.6 °F 64% 30.23 in 10.0 mi NW 9.2 mph - N/A   Overcast
8:15 PM 28.4 °F 18.5 °F 17.6 °F 64% 30.22 in 10.0 mi WNW 11.5 mph 17.3 mph N/A   Overcast
8:35 PM 28.4 °F 18.0 °F 17.6 °F 64% 30.22 in 10.0 mi NW 12.7 mph 18.4 mph N/A   Overcast
8:55 PM 28.4 °F 19.1 °F 17.6 °F 64% 30.22 in 10.0 mi WNW 10.4 mph 20.7 mph N/A   Overcast
9:15 PM 28.4 °F 19.1 °F 17.6 °F 64% 30.22 in 10.0 mi NW 10.4 mph 19.6 mph N/A   Overcast
9:35 PM 28.4 °F 18.5 °F 17.6 °F 64% 30.21 in 10.0 mi NW 11.5 mph - N/A Snow Light Snow
9:55 PM 28.4 °F 18.0 °F 17.6 °F 64% 30.22 in 10.0 mi NW 12.7 mph 21.9 mph N/A   Overcast
10:15 PM 28.4 °F 19.1 °F 17.6 °F 64% 30.22 in 10.0 mi NW 10.4 mph 21.9 mph N/A   Overcast
10:55 PM 28.4 °F 18.0 °F 17.6 °F 64% 30.22 in 10.0 mi NW 12.7 mph 17.3 mph N/A   Overcast
11:15 PM 26.6 °F 15.7 °F 15.8 °F 64% 30.23 in 10.0 mi NNW 12.7 mph 20.7 mph N/A   Overcast
11:35 PM 26.6 °F 16.8 °F 15.8 °F 64% 30.22 in 10.0 mi NW 10.4 mph 20.7 mph N/A   Overcast
11:55 PM 26.6 °F 14.7 °F 15.8 °F 64% 30.22 in 10.0 mi NNW 15.0 mph - N/A   Overcast